createdAt,value
2022-12-25T00:00:27.918Z,7.14
2022-12-25T00:01:27.892Z,7.15
2022-12-25T00:02:27.942Z,7.17
2022-12-25T00:03:27.968Z,7.18
2022-12-25T00:04:27.793Z,7.17
2022-12-25T00:05:27.780Z,7.11
2022-12-25T00:06:27.765Z,7.11
2022-12-25T00:07:27.744Z,7.10
2022-12-25T00:08:27.772Z,7.07
2022-12-25T00:09:27.703Z,7.10
2022-12-25T00:10:27.717Z,7.11
2022-12-25T00:11:27.692Z,7.11
2022-12-25T00:12:27.690Z,7.11
2022-12-25T00:13:27.663Z,7.11
2022-12-25T00:14:27.692Z,7.11
2022-12-25T00:15:27.648Z,7.10
2022-12-25T00:16:27.785Z,7.06
2022-12-25T00:17:27.613Z,7.06
2022-12-25T00:18:27.596Z,7.05
2022-12-25T00:19:27.579Z,7.05
2022-12-25T00:20:27.617Z,7.03
2022-12-25T00:21:27.548Z,7.03
2022-12-25T00:22:27.548Z,7.03
2022-12-25T00:23:27.701Z,7.02
2022-12-25T00:24:27.535Z,7.03
2022-12-25T00:25:27.586Z,7.03
2022-12-25T00:26:27.505Z,7.02
2022-12-25T00:27:27.516Z,7.03
2022-12-25T00:28:27.497Z,7.02
2022-12-25T00:29:27.494Z,7.05
2022-12-25T00:30:27.442Z,7.02
2022-12-25T00:31:27.428Z,7.02
2022-12-25T00:32:27.420Z,7.02
2022-12-25T00:33:27.385Z,7.02
2022-12-25T00:34:27.413Z,7.06
2022-12-25T00:35:27.371Z,7.10
2022-12-25T00:36:27.362Z,7.15
2022-12-25T00:37:27.343Z,7.20
2022-12-25T00:38:27.348Z,7.20
2022-12-25T00:39:27.336Z,7.18
2022-12-25T00:40:27.335Z,7.18
2022-12-25T00:41:27.290Z,7.18
2022-12-25T00:42:27.292Z,7.17
2022-12-25T00:43:27.296Z,7.17
2022-12-25T00:44:27.267Z,7.17
2022-12-25T00:45:27.349Z,7.17
2022-12-25T00:46:27.333Z,7.15
2022-12-25T00:47:27.211Z,7.14
2022-12-25T00:48:27.204Z,7.15
2022-12-25T00:49:27.175Z,7.15
2022-12-25T00:50:27.178Z,7.15
2022-12-25T00:51:27.206Z,7.14
2022-12-25T00:52:27.167Z,7.14
2022-12-25T00:53:27.159Z,7.11
2022-12-25T00:54:27.144Z,7.11
2022-12-25T00:55:27.096Z,7.10
2022-12-25T00:56:27.173Z,7.05
2022-12-25T00:57:27.128Z,7.03
2022-12-25T00:58:27.079Z,7.02
2022-12-25T00:59:27.062Z,7.02
2022-12-25T01:00:27.038Z,7.03
2022-12-25T01:01:29.798Z,7.02
2022-12-25T01:02:27.282Z,7.05
2022-12-25T01:03:27.122Z,7.03
2022-12-25T01:04:26.992Z,7.05
2022-12-25T01:05:26.988Z,7.03
2022-12-25T01:06:26.990Z,7.02
2022-12-25T01:07:26.970Z,7.03
2022-12-25T01:08:26.965Z,6.99
2022-12-25T01:09:26.932Z,6.99
2022-12-25T01:10:26.915Z,6.97
2022-12-25T01:11:26.942Z,6.96
2022-12-25T01:12:26.902Z,6.97
2022-12-25T01:13:26.872Z,6.96
2022-12-25T01:14:26.844Z,6.97
2022-12-25T01:15:26.870Z,6.95
2022-12-25T01:16:26.913Z,6.96
2022-12-25T01:17:26.818Z,6.95
2022-12-25T01:18:26.830Z,6.95
2022-12-25T01:19:26.823Z,6.92
2022-12-25T01:20:26.770Z,6.92
2022-12-25T01:21:26.777Z,6.89
2022-12-25T01:22:26.748Z,6.87
2022-12-25T01:23:26.751Z,6.88
2022-12-25T01:24:26.745Z,6.88
2022-12-25T01:25:26.713Z,6.87
2022-12-25T01:26:26.691Z,6.85
2022-12-25T01:27:26.708Z,6.88
2022-12-25T01:28:26.672Z,6.87
2022-12-25T01:29:26.656Z,6.88
2022-12-25T01:30:26.646Z,6.88
2022-12-25T01:31:26.760Z,6.88
2022-12-25T01:32:26.620Z,6.89
2022-12-25T01:33:26.604Z,6.87
2022-12-25T01:34:26.584Z,6.88
2022-12-25T01:35:26.603Z,6.89
2022-12-25T01:36:26.562Z,6.92
2022-12-25T01:37:26.566Z,6.93
2022-12-25T01:38:26.574Z,6.96
2022-12-25T01:39:26.519Z,6.96
2022-12-25T01:40:26.521Z,7.00
2022-12-25T01:41:26.513Z,6.97
2022-12-25T01:42:26.483Z,7.00
2022-12-25T01:43:26.479Z,6.97
2022-12-25T01:44:26.468Z,6.97
2022-12-25T01:45:26.470Z,6.97
2022-12-25T01:46:26.422Z,6.99
2022-12-25T01:47:26.415Z,6.96
2022-12-25T01:48:26.528Z,6.95
2022-12-25T01:49:26.475Z,6.93
2022-12-25T01:50:26.383Z,6.92
2022-12-25T01:51:26.402Z,6.92
2022-12-25T01:52:26.400Z,6.89
2022-12-25T01:53:26.350Z,6.89
2022-12-25T01:54:26.318Z,6.89
2022-12-25T01:55:26.326Z,6.89
2022-12-25T01:56:26.294Z,6.87
2022-12-25T01:57:26.310Z,6.85
2022-12-25T01:58:26.278Z,6.87
2022-12-25T01:59:26.293Z,6.88
2022-12-25T02:00:26.268Z,6.88
2022-12-25T02:01:26.380Z,6.89
2022-12-25T02:02:26.364Z,6.92
2022-12-25T02:03:26.301Z,6.97
2022-12-25T02:06:53.186Z,7.05
2022-12-25T02:06:58.132Z,7.06
2022-12-25T02:07:58.089Z,7.07
2022-12-25T02:08:58.077Z,7.10
2022-12-25T02:09:58.072Z,7.10
2022-12-25T02:10:58.038Z,7.10
2022-12-25T02:11:58.033Z,7.10
2022-12-25T02:12:58.008Z,7.11
2022-12-25T02:13:58.034Z,7.11
2022-12-25T02:15:04.563Z,7.14
2022-12-25T02:15:57.982Z,7.13
2022-12-25T02:16:59.032Z,7.14
2022-12-25T02:17:57.951Z,7.14
2022-12-25T02:18:57.956Z,7.14
2022-12-25T02:19:57.916Z,7.15
2022-12-25T02:20:57.902Z,7.14
2022-12-25T02:21:57.948Z,7.15
2022-12-25T02:22:57.897Z,7.14
2022-12-25T02:23:57.861Z,7.14
2022-12-25T02:24:57.844Z,7.13
2022-12-25T02:25:57.843Z,7.14
2022-12-25T02:26:57.827Z,7.14
2022-12-25T02:27:57.840Z,7.13
2022-12-25T02:28:57.801Z,7.15
2022-12-25T02:29:57.818Z,7.15
2022-12-25T02:30:57.765Z,7.15
2022-12-25T02:31:57.785Z,7.17
2022-12-25T02:32:57.749Z,7.18
2022-12-25T02:33:57.796Z,7.18
2022-12-25T02:34:57.715Z,7.20
2022-12-25T02:35:57.708Z,7.21
2022-12-25T02:36:57.701Z,7.21
2022-12-25T02:37:57.671Z,7.23
2022-12-25T02:38:57.691Z,7.23
2022-12-25T02:39:57.671Z,7.21
2022-12-25T02:40:57.652Z,7.23
2022-12-25T02:41:57.655Z,7.24
2022-12-25T02:42:57.662Z,7.25
2022-12-25T02:43:57.668Z,7.28
2022-12-25T02:44:57.616Z,7.29
2022-12-25T02:45:57.614Z,7.35
2022-12-25T02:46:57.580Z,7.43
2022-12-25T02:47:57.555Z,7.47
2022-12-25T02:48:57.573Z,7.45
2022-12-25T02:49:57.552Z,7.45
2022-12-25T02:50:57.538Z,7.45
2022-12-25T02:51:57.548Z,7.50
2022-12-25T02:52:57.480Z,7.51
2022-12-25T02:53:57.511Z,7.51
2022-12-25T02:54:57.469Z,7.51
2022-12-25T02:55:57.456Z,7.51
2022-12-25T02:56:57.437Z,7.51
2022-12-25T02:57:57.601Z,7.57
2022-12-25T02:58:57.399Z,7.56
2022-12-25T02:59:57.425Z,7.54
2022-12-25T03:00:57.389Z,7.50
2022-12-25T03:01:57.515Z,7.47
2022-12-25T03:02:57.392Z,7.43
2022-12-25T03:03:57.358Z,7.40
2022-12-25T03:04:57.318Z,7.38
2022-12-25T03:05:57.341Z,7.33
2022-12-25T03:06:57.286Z,7.29
2022-12-25T03:07:57.296Z,7.25
2022-12-25T03:08:57.263Z,7.23
2022-12-25T03:09:57.276Z,7.21
2022-12-25T03:10:57.350Z,7.21
2022-12-25T03:11:57.261Z,7.20
2022-12-25T03:12:57.212Z,7.20
2022-12-25T03:13:57.205Z,7.20
2022-12-25T03:14:57.190Z,7.20
2022-12-25T03:15:57.201Z,7.21
2022-12-25T03:16:57.303Z,7.23
2022-12-25T03:17:57.156Z,7.24
2022-12-25T03:18:57.165Z,7.29
2022-12-25T03:19:57.160Z,7.31
2022-12-25T03:20:57.101Z,7.31
2022-12-25T03:21:57.114Z,7.31
2022-12-25T03:22:57.108Z,7.32
2022-12-25T03:23:57.069Z,7.32
2022-12-25T03:24:57.080Z,7.32
2022-12-25T03:25:57.071Z,7.33
2022-12-25T03:26:57.032Z,7.33
2022-12-25T03:27:57.042Z,7.35
2022-12-25T03:28:57.025Z,7.33
2022-12-25T03:29:56.998Z,7.33
2022-12-25T03:30:57.015Z,7.31
2022-12-25T03:31:57.007Z,7.29
2022-12-25T03:32:56.956Z,7.31
2022-12-25T03:33:57.057Z,7.29
2022-12-25T03:34:56.926Z,7.32
2022-12-25T03:35:56.930Z,7.32
2022-12-25T03:36:56.917Z,7.29
2022-12-25T03:37:56.886Z,7.32
2022-12-25T03:38:56.888Z,7.31
2022-12-25T03:39:56.874Z,7.31
2022-12-25T03:40:56.842Z,7.31
2022-12-25T03:41:56.866Z,7.31
2022-12-25T03:42:56.815Z,7.31
2022-12-25T03:43:56.841Z,7.29
2022-12-25T03:44:56.816Z,7.28
2022-12-25T03:45:56.868Z,7.28
2022-12-25T03:46:56.784Z,7.28
2022-12-25T03:47:56.753Z,7.24
2022-12-25T03:48:56.771Z,7.23
2022-12-25T03:49:56.727Z,7.24
2022-12-25T03:50:56.715Z,7.24
2022-12-25T03:51:56.712Z,7.24
2022-12-25T03:52:56.690Z,7.25
2022-12-25T03:53:56.706Z,7.25
2022-12-25T03:54:56.659Z,7.25
2022-12-25T03:55:56.651Z,7.28
2022-12-25T03:56:56.690Z,7.28
2022-12-25T03:57:56.629Z,7.29
2022-12-25T03:58:56.689Z,7.32
2022-12-25T03:59:56.608Z,7.31
2022-12-25T04:00:56.621Z,7.31
2022-12-25T04:01:56.696Z,7.31
2022-12-25T04:02:56.694Z,7.32
2022-12-25T04:03:56.548Z,7.33
2022-12-25T04:04:56.527Z,7.32
2022-12-25T04:05:56.517Z,7.32
2022-12-25T04:06:56.539Z,7.33
2022-12-25T04:07:56.496Z,7.32
2022-12-25T04:08:56.474Z,7.31
2022-12-25T04:09:56.498Z,7.31
2022-12-25T04:10:56.438Z,7.29
2022-12-25T04:12:02.257Z,7.29
2022-12-25T04:12:56.428Z,7.28
2022-12-25T04:13:56.458Z,7.25
2022-12-25T04:14:56.444Z,7.24
2022-12-25T04:15:56.456Z,7.25
2022-12-25T04:16:56.381Z,7.25
2022-12-25T04:17:56.377Z,7.28
2022-12-25T04:18:56.358Z,7.29
2022-12-25T04:19:56.363Z,7.25
2022-12-25T04:20:56.321Z,7.24
2022-12-25T04:21:56.350Z,7.24
2022-12-25T04:22:56.285Z,7.24
2022-12-25T04:23:56.300Z,7.24
2022-12-25T04:24:56.256Z,7.21
2022-12-25T04:25:56.260Z,7.20
2022-12-25T04:26:56.262Z,7.18
2022-12-25T04:27:56.235Z,7.20
2022-12-25T04:28:56.211Z,7.18
2022-12-25T04:29:56.228Z,7.20
2022-12-25T04:30:56.256Z,7.21
2022-12-25T04:31:56.203Z,7.25
2022-12-25T04:32:56.148Z,7.29
2022-12-25T04:33:56.146Z,7.32
2022-12-25T04:34:56.161Z,7.31
2022-12-25T04:35:56.125Z,7.31
2022-12-25T04:36:56.096Z,7.32
2022-12-25T04:37:56.102Z,7.31
2022-12-25T04:38:56.153Z,7.33
2022-12-25T04:39:56.100Z,7.32
2022-12-25T04:40:56.069Z,7.33
2022-12-25T04:41:56.065Z,7.32
2022-12-25T04:42:56.026Z,7.33
2022-12-25T04:43:56.026Z,7.38
2022-12-25T04:44:55.988Z,7.50
2022-12-25T04:45:55.995Z,7.56
2022-12-25T04:46:56.048Z,7.58
2022-12-25T04:47:56.031Z,7.60
2022-12-25T04:48:55.946Z,7.63
2022-12-25T04:49:55.946Z,7.69
2022-12-25T04:50:55.947Z,7.69
2022-12-25T04:51:55.916Z,7.70
2022-12-25T04:52:55.889Z,7.70
2022-12-25T04:53:55.913Z,7.70
2022-12-25T04:54:55.866Z,7.72
2022-12-25T04:55:55.878Z,7.70
2022-12-25T04:56:55.869Z,7.75
2022-12-25T04:57:55.841Z,7.80
2022-12-25T04:58:55.850Z,7.82
2022-12-25T04:59:55.816Z,7.79
2022-12-25T05:00:55.812Z,7.77
2022-12-25T05:01:55.847Z,7.76
2022-12-25T05:02:55.951Z,7.72
2022-12-25T05:03:55.815Z,7.67
2022-12-25T05:04:55.835Z,7.66
2022-12-25T05:05:55.755Z,7.61
2022-12-25T05:06:55.702Z,7.58
2022-12-25T05:07:55.736Z,7.58
2022-12-25T05:08:55.704Z,7.56
2022-12-25T05:09:55.692Z,7.56
2022-12-25T05:10:55.661Z,7.53
2022-12-25T05:11:55.648Z,7.54
2022-12-25T05:12:55.629Z,7.53
2022-12-25T05:13:55.633Z,7.53
2022-12-25T05:14:55.685Z,7.51
2022-12-25T05:15:55.629Z,7.54
2022-12-25T05:16:55.575Z,7.56
2022-12-25T05:17:55.567Z,7.58
2022-12-25T05:18:55.572Z,7.58
2022-12-25T05:19:55.564Z,7.58
2022-12-25T05:20:55.520Z,7.54
2022-12-25T05:21:55.501Z,7.50
2022-12-25T05:22:55.509Z,7.45
2022-12-25T05:23:55.496Z,7.40
2022-12-25T05:24:55.494Z,7.40
2022-12-25T05:25:55.493Z,7.38
2022-12-25T05:26:55.455Z,7.38
2022-12-25T05:27:55.446Z,7.39
2022-12-25T05:28:55.466Z,7.39
2022-12-25T05:29:55.447Z,7.42
2022-12-25T05:30:55.495Z,7.42
2022-12-25T05:31:55.374Z,7.42
2022-12-25T05:32:55.366Z,7.42
2022-12-25T05:33:55.381Z,7.42
2022-12-25T05:34:55.337Z,7.42
2022-12-25T05:35:55.326Z,7.42
2022-12-25T05:36:55.351Z,7.39
2022-12-25T05:37:55.330Z,7.39
2022-12-25T05:38:55.322Z,7.39
2022-12-25T05:39:55.285Z,7.36
2022-12-25T05:40:55.275Z,7.35
2022-12-25T05:41:55.244Z,7.35
2022-12-25T05:42:55.258Z,7.35
2022-12-25T05:43:55.250Z,7.36
2022-12-25T05:44:55.215Z,7.36
2022-12-25T05:45:55.187Z,7.36
2022-12-25T05:46:55.317Z,7.38
2022-12-25T05:47:55.179Z,7.35
2022-12-25T05:48:55.199Z,7.35
2022-12-25T05:49:55.123Z,7.33
2022-12-25T05:50:55.128Z,7.32
2022-12-25T05:51:55.139Z,7.32
2022-12-25T05:52:55.104Z,7.32
2022-12-25T05:53:55.078Z,7.31
2022-12-25T05:54:55.080Z,7.32
2022-12-25T05:55:55.056Z,7.32
2022-12-25T05:56:55.079Z,7.32
2022-12-25T05:57:55.022Z,7.33
2022-12-25T05:58:55.027Z,7.33
2022-12-25T05:59:54.998Z,7.33
2022-12-25T06:00:55.035Z,7.33
2022-12-25T06:01:55.071Z,7.33
2022-12-25T06:02:55.099Z,7.32
2022-12-25T06:03:54.968Z,7.31
2022-12-25T06:04:54.947Z,7.32
2022-12-25T06:05:54.930Z,7.29
2022-12-25T06:06:54.956Z,7.29
2022-12-25T06:07:54.909Z,7.28
2022-12-25T06:08:54.894Z,7.28
2022-12-25T06:09:54.887Z,7.25
2022-12-25T06:10:54.865Z,7.25
2022-12-25T06:11:54.881Z,7.25
2022-12-25T06:12:54.846Z,7.24
2022-12-25T06:13:54.819Z,7.23
2022-12-25T06:14:54.816Z,7.25
2022-12-25T06:15:54.862Z,7.28
2022-12-25T06:16:54.875Z,7.25
2022-12-25T06:17:54.760Z,7.29
2022-12-25T06:18:54.773Z,7.29
2022-12-25T06:19:54.743Z,7.29
2022-12-25T06:20:54.739Z,7.28
2022-12-25T06:21:54.730Z,7.28
2022-12-25T06:22:54.729Z,7.28
2022-12-25T06:23:54.727Z,7.28
2022-12-25T06:24:54.683Z,7.28
2022-12-25T06:25:54.682Z,7.25
2022-12-25T06:26:54.657Z,7.23
2022-12-25T06:27:54.634Z,7.23
2022-12-25T06:28:54.635Z,7.21
2022-12-25T06:29:54.607Z,7.21
2022-12-25T06:30:54.624Z,7.18
2022-12-25T06:31:54.627Z,7.17
2022-12-25T06:32:54.568Z,7.17
2022-12-25T06:33:54.567Z,7.14
2022-12-25T06:34:54.551Z,7.15
2022-12-25T06:35:54.550Z,7.15
2022-12-25T06:36:54.531Z,7.14
2022-12-25T06:37:54.517Z,7.14
2022-12-25T06:38:54.498Z,7.14
2022-12-25T06:39:54.469Z,7.11
2022-12-25T06:40:54.492Z,7.06
2022-12-25T06:41:54.488Z,7.02
2022-12-25T06:42:54.453Z,6.97
2022-12-25T06:43:54.425Z,6.96
2022-12-25T06:44:54.447Z,6.93
2022-12-25T06:45:54.513Z,6.93
2022-12-25T06:46:54.421Z,6.95
2022-12-25T06:47:54.396Z,6.95
2022-12-25T06:48:54.390Z,6.99
2022-12-25T06:49:54.374Z,6.99
2022-12-25T06:50:54.431Z,7.03
2022-12-25T06:51:54.352Z,7.03
2022-12-25T06:52:54.345Z,7.05
2022-12-25T06:53:54.294Z,7.07
2022-12-25T06:54:54.334Z,7.07
2022-12-25T06:55:54.279Z,7.07
2022-12-25T06:56:54.361Z,7.06
2022-12-25T06:57:54.243Z,7.05
2022-12-25T06:58:54.245Z,7.05
2022-12-25T06:59:55.527Z,7.03
2022-12-25T07:00:54.241Z,7.02
2022-12-25T07:01:54.527Z,7.05
2022-12-25T07:02:54.350Z,7.06
2022-12-25T07:03:54.154Z,7.10
2022-12-25T07:04:54.166Z,7.07
2022-12-25T07:05:54.139Z,7.07
2022-12-25T07:06:54.158Z,7.06
2022-12-25T07:07:54.102Z,7.07
2022-12-25T07:08:54.097Z,7.06
2022-12-25T07:09:54.075Z,7.06
2022-12-25T07:10:54.102Z,7.06
2022-12-25T07:11:54.049Z,7.05
2022-12-25T07:12:54.069Z,7.05
2022-12-25T07:13:54.020Z,7.14
2022-12-25T07:14:54.034Z,7.21
2022-12-25T07:15:54.006Z,7.32
2022-12-25T07:16:54.077Z,7.38
2022-12-25T07:17:54.009Z,7.43
2022-12-25T07:18:53.976Z,7.47
2022-12-25T07:19:53.964Z,7.50
2022-12-25T07:20:53.934Z,7.51
2022-12-25T07:21:53.920Z,7.50
2022-12-25T07:22:53.938Z,7.47
2022-12-25T07:23:53.883Z,7.43
2022-12-25T07:24:53.888Z,7.42
2022-12-25T07:25:53.870Z,7.42
2022-12-25T07:26:53.865Z,7.38
2022-12-25T07:27:53.875Z,7.38
2022-12-25T07:28:53.839Z,7.38
2022-12-25T07:29:53.823Z,7.35
2022-12-25T07:30:53.817Z,7.35
2022-12-25T07:31:53.844Z,7.29
2022-12-25T07:32:53.804Z,7.29
2022-12-25T07:33:53.762Z,7.29
2022-12-25T07:34:53.778Z,7.24
2022-12-25T07:35:53.754Z,7.23
2022-12-25T07:36:53.737Z,7.23
2022-12-25T07:37:53.702Z,7.23
2022-12-25T07:38:53.714Z,7.24
2022-12-25T07:39:53.680Z,7.25
2022-12-25T07:40:53.686Z,7.28
2022-12-25T07:41:53.662Z,7.31
2022-12-25T07:42:53.666Z,7.32
2022-12-25T07:43:53.650Z,7.36
2022-12-25T07:44:53.663Z,7.39
2022-12-25T07:45:53.688Z,7.42
2022-12-25T07:46:53.597Z,7.45
2022-12-25T07:47:55.151Z,7.48
2022-12-25T07:48:53.573Z,7.51
2022-12-25T07:49:53.549Z,7.54
2022-12-25T07:50:53.577Z,7.58
2022-12-25T07:51:53.541Z,7.66
2022-12-25T07:52:53.670Z,7.69
2022-12-25T07:53:53.524Z,7.82
2022-12-25T07:54:53.507Z,7.91
2022-12-25T07:55:53.471Z,7.91
2022-12-25T07:56:53.472Z,7.95
2022-12-25T07:57:53.490Z,7.97
2022-12-25T07:58:53.440Z,7.97
2022-12-25T07:59:53.417Z,7.98
2022-12-25T08:00:53.530Z,8.00
2022-12-25T08:01:53.713Z,8.03
2022-12-25T08:02:53.634Z,8.09
2022-12-25T08:03:53.567Z,8.13
2022-12-25T08:04:53.365Z,8.23
2022-12-25T08:05:53.335Z,8.31
2022-12-25T08:06:53.362Z,8.45
2022-12-25T08:07:57.302Z,8.58
2022-12-25T08:08:53.346Z,8.73
2022-12-25T08:09:53.288Z,8.82
2022-12-25T08:10:53.278Z,8.87
2022-12-25T08:11:53.281Z,8.89
2022-12-25T08:12:53.287Z,8.92
2022-12-25T08:13:53.239Z,8.99
2022-12-25T08:14:53.294Z,9.03
2022-12-25T08:15:53.205Z,9.06
2022-12-25T08:16:53.250Z,9.11
2022-12-25T08:17:53.207Z,9.16
2022-12-25T08:18:53.184Z,9.22
2022-12-25T08:19:53.142Z,9.28
2022-12-25T08:20:53.148Z,9.34
2022-12-25T08:21:53.122Z,9.40
2022-12-25T08:22:53.132Z,9.44
2022-12-25T08:23:53.130Z,9.46
2022-12-25T08:24:53.096Z,9.46
2022-12-25T08:25:53.081Z,9.47
2022-12-25T08:26:53.069Z,9.47
2022-12-25T08:27:53.043Z,9.48
2022-12-25T08:28:53.155Z,9.47
2022-12-25T08:29:53.016Z,9.50
2022-12-25T08:30:53.050Z,9.50
2022-12-25T08:31:53.016Z,9.51
2022-12-25T08:32:52.985Z,9.55
2022-12-25T08:33:52.975Z,9.58
2022-12-25T08:34:52.965Z,9.64
2022-12-25T08:35:52.964Z,9.65
2022-12-25T08:36:52.932Z,9.72
2022-12-25T08:37:52.914Z,9.76
2022-12-25T08:38:57.029Z,9.77
2022-12-25T08:39:52.883Z,9.79
2022-12-25T08:40:52.894Z,9.79
2022-12-25T08:41:52.889Z,9.89
2022-12-25T08:42:52.854Z,9.97
2022-12-25T08:43:52.852Z,10.09
2022-12-25T08:44:52.828Z,10.17
2022-12-25T08:45:52.845Z,10.23
2022-12-25T08:46:52.799Z,10.35
2022-12-25T08:47:52.792Z,10.48
2022-12-25T08:48:52.794Z,10.57
2022-12-25T08:49:52.748Z,10.71
2022-12-25T08:50:52.750Z,10.81
2022-12-25T08:51:52.727Z,10.94
2022-12-25T08:52:52.741Z,10.99
2022-12-25T08:53:52.736Z,10.99
2022-12-25T08:54:52.688Z,11.02
2022-12-25T08:55:52.679Z,11.07
2022-12-25T08:56:55.109Z,11.12
2022-12-25T08:57:52.665Z,11.22
2022-12-25T08:58:52.659Z,11.26
2022-12-25T08:59:52.670Z,11.37
2022-12-25T09:00:52.767Z,11.50
2022-12-25T09:01:52.728Z,11.66
2022-12-25T09:02:52.801Z,11.81
2022-12-25T09:03:52.657Z,11.94
2022-12-25T09:04:52.574Z,12.09
2022-12-25T09:05:52.532Z,12.24
2022-12-25T09:06:52.536Z,12.35
2022-12-25T09:07:52.518Z,12.46
2022-12-25T09:08:52.546Z,12.58
2022-12-25T09:09:52.501Z,12.72
2022-12-25T09:10:52.490Z,12.80
2022-12-25T09:11:52.490Z,12.86
2022-12-25T09:12:52.457Z,12.94
2022-12-25T09:13:52.433Z,13.03
2022-12-25T09:14:52.421Z,13.05
2022-12-25T09:15:52.456Z,13.09
2022-12-25T09:16:52.399Z,13.08
2022-12-25T09:17:52.404Z,13.12
2022-12-25T09:18:52.381Z,13.09
2022-12-25T09:19:52.413Z,13.08
2022-12-25T09:20:52.348Z,13.08
2022-12-25T09:21:52.353Z,13.13
2022-12-25T09:22:52.315Z,13.15
2022-12-25T09:23:52.291Z,13.15
2022-12-25T09:24:52.291Z,13.19
2022-12-25T09:25:52.331Z,13.23
2022-12-25T09:26:52.289Z,13.30
2022-12-25T09:27:52.239Z,13.35
2022-12-25T09:28:52.820Z,13.38
2022-12-25T09:29:52.246Z,13.35
2022-12-25T09:30:52.257Z,13.35
2022-12-25T09:31:52.193Z,13.31
2022-12-25T09:32:52.207Z,13.27
2022-12-25T09:33:52.195Z,13.25
2022-12-25T09:34:52.149Z,13.22
2022-12-25T09:35:52.167Z,13.16
2022-12-25T09:36:52.159Z,13.13
2022-12-25T09:37:52.107Z,13.11
2022-12-25T09:38:52.086Z,13.12
2022-12-25T09:39:52.148Z,13.13
2022-12-25T09:40:52.088Z,13.16
2022-12-25T09:41:52.073Z,13.22
2022-12-25T09:42:52.029Z,13.25
2022-12-25T09:43:52.064Z,13.25
2022-12-25T09:44:52.019Z,13.22
2022-12-25T09:45:52.070Z,13.18
2022-12-25T09:46:52.107Z,13.11
2022-12-25T09:47:52.016Z,13.01
2022-12-25T09:48:52.003Z,12.95
2022-12-25T09:49:51.945Z,12.94
2022-12-25T09:50:51.953Z,12.97
2022-12-25T09:51:51.945Z,13.01
2022-12-25T09:52:51.905Z,13.09
2022-12-25T09:53:51.915Z,13.20
2022-12-25T09:54:51.874Z,13.28
2022-12-25T09:55:51.885Z,13.38
2022-12-25T09:56:51.853Z,13.50
2022-12-25T09:57:51.851Z,13.56
2022-12-25T09:58:51.852Z,13.62
2022-12-25T09:59:51.825Z,13.50
2022-12-25T10:00:51.801Z,13.42
2022-12-25T10:01:51.921Z,13.44
2022-12-25T10:02:51.953Z,13.38
2022-12-25T10:03:51.898Z,13.44
2022-12-25T10:04:51.770Z,13.50
2022-12-25T10:05:51.747Z,13.60
2022-12-25T10:06:51.704Z,13.74
2022-12-25T10:07:51.724Z,13.89
2022-12-25T10:08:51.734Z,14.00
2022-12-25T10:09:51.680Z,14.11
2022-12-25T10:10:51.685Z,14.12
2022-12-25T10:11:51.665Z,14.10
2022-12-25T10:12:51.671Z,14.10
2022-12-25T10:13:51.637Z,14.18
2022-12-25T10:14:51.631Z,14.26
2022-12-25T10:15:51.667Z,14.28
2022-12-25T10:16:51.574Z,14.30
2022-12-25T10:17:51.589Z,14.33
2022-12-25T10:18:51.550Z,14.36
2022-12-25T10:19:51.572Z,14.37
2022-12-25T10:20:51.535Z,14.44
2022-12-25T10:21:51.522Z,14.41
2022-12-25T10:22:51.525Z,14.35
2022-12-25T10:23:51.499Z,14.45
2022-12-25T10:24:51.499Z,14.54
2022-12-25T10:25:51.465Z,14.63
2022-12-25T10:26:51.613Z,14.65
2022-12-25T10:27:51.436Z,14.66
2022-12-25T10:28:51.419Z,14.65
2022-12-25T10:29:51.454Z,14.68
2022-12-25T10:30:51.404Z,14.73
2022-12-25T10:31:51.396Z,14.81
2022-12-25T10:32:51.363Z,14.91
2022-12-25T10:33:51.363Z,14.99
2022-12-25T10:34:51.363Z,15.09
2022-12-25T10:35:51.371Z,15.25
2022-12-25T10:36:51.310Z,15.35
2022-12-25T10:37:51.314Z,15.42
2022-12-25T10:38:51.300Z,15.43
2022-12-25T10:39:51.284Z,15.52
2022-12-25T10:40:51.288Z,15.64
2022-12-25T10:41:51.257Z,15.72
2022-12-25T10:42:51.254Z,15.79
2022-12-25T10:43:51.231Z,15.73
2022-12-25T10:44:51.232Z,15.77
2022-12-25T10:45:51.222Z,15.76
2022-12-25T10:46:51.253Z,15.76
2022-12-25T10:47:58.554Z,15.83
2022-12-25T10:48:51.162Z,15.90
2022-12-25T10:49:51.149Z,15.98
2022-12-25T10:50:51.150Z,16.05
2022-12-25T10:51:51.119Z,16.15
2022-12-25T10:52:51.131Z,16.16
2022-12-25T10:53:51.113Z,16.15
2022-12-25T10:54:51.074Z,16.16
2022-12-25T10:55:51.063Z,16.24
2022-12-25T10:56:51.049Z,16.31
2022-12-25T10:57:51.069Z,16.33
2022-12-25T10:58:51.030Z,16.28
2022-12-25T10:59:51.022Z,16.31
2022-12-25T11:00:50.984Z,16.39
2022-12-25T11:01:55.055Z,16.53
2022-12-25T11:02:51.219Z,16.65
2022-12-25T11:03:51.114Z,16.71
2022-12-25T11:04:50.957Z,16.71
2022-12-25T11:05:50.944Z,16.74
2022-12-25T11:06:50.915Z,16.79
2022-12-25T11:07:50.984Z,16.79
2022-12-25T11:08:50.946Z,16.76
2022-12-25T11:09:50.910Z,16.69
2022-12-25T11:10:50.857Z,16.65
2022-12-25T11:11:50.850Z,16.60
2022-12-25T11:12:50.885Z,16.60
2022-12-25T11:13:50.838Z,16.69
2022-12-25T11:14:50.795Z,16.75
2022-12-25T11:15:50.853Z,16.84
2022-12-25T11:16:50.772Z,17.01
2022-12-25T11:17:50.790Z,17.08
2022-12-25T11:18:50.754Z,17.05
2022-12-25T11:19:50.768Z,17.15
2022-12-25T11:20:50.721Z,17.23
2022-12-25T11:21:50.715Z,17.27
2022-12-25T11:22:50.719Z,17.38
2022-12-25T11:23:50.699Z,17.39
2022-12-25T11:24:50.666Z,17.36
2022-12-25T11:25:50.663Z,17.33
2022-12-25T11:26:50.664Z,17.31
2022-12-25T11:27:53.568Z,17.29
2022-12-25T11:28:50.612Z,17.22
2022-12-25T11:29:50.624Z,17.23
2022-12-25T11:30:50.595Z,17.24
2022-12-25T11:31:50.739Z,17.24
2022-12-25T11:32:50.596Z,17.38
2022-12-25T11:33:50.605Z,17.41
2022-12-25T11:34:50.565Z,17.36
2022-12-25T11:35:50.531Z,17.26
2022-12-25T11:36:50.501Z,17.06
2022-12-25T11:37:50.510Z,16.94
2022-12-25T11:38:50.484Z,16.94
2022-12-25T11:39:50.477Z,17.04
2022-12-25T11:40:50.497Z,17.09
2022-12-25T11:41:50.482Z,17.12
2022-12-25T11:42:50.420Z,17.14
2022-12-25T11:43:50.422Z,17.09
2022-12-25T11:44:50.428Z,17.08
2022-12-25T11:45:50.416Z,17.12
2022-12-25T11:46:50.478Z,17.19
2022-12-25T11:47:50.391Z,17.20
2022-12-25T11:48:50.352Z,17.15
2022-12-25T11:49:52.147Z,17.14
2022-12-25T11:50:50.322Z,17.08
2022-12-25T11:51:50.329Z,17.08
2022-12-25T11:52:50.296Z,17.16
2022-12-25T11:53:50.316Z,17.16
2022-12-25T11:54:50.275Z,17.16
2022-12-25T11:55:50.265Z,17.16
2022-12-25T11:56:50.269Z,17.16
2022-12-25T11:57:50.243Z,16.90
2022-12-25T11:58:50.281Z,16.72
2022-12-25T11:59:50.215Z,16.68
2022-12-25T12:00:50.181Z,16.72
2022-12-25T12:01:50.311Z,16.68
2022-12-25T12:02:50.345Z,16.60
2022-12-25T12:03:50.264Z,16.57
2022-12-25T12:04:50.153Z,16.51
2022-12-25T12:05:50.145Z,16.50
2022-12-25T12:06:50.126Z,16.51
2022-12-25T12:07:50.131Z,16.41
2022-12-25T12:08:50.096Z,16.32
2022-12-25T12:09:50.098Z,16.24
2022-12-25T12:10:50.055Z,16.23
2022-12-25T12:11:50.063Z,16.17
2022-12-25T12:12:50.036Z,16.12
2022-12-25T12:13:50.013Z,16.13
2022-12-25T12:14:50.041Z,16.13
2022-12-25T12:15:50.000Z,16.15
2022-12-25T12:16:50.052Z,16.12
2022-12-25T12:17:49.972Z,16.01
2022-12-25T12:18:50.768Z,15.91
2022-12-25T12:19:49.962Z,15.80
2022-12-25T12:20:49.946Z,15.75
2022-12-25T12:21:49.960Z,15.70
2022-12-25T12:22:49.886Z,15.62
2022-12-25T12:23:49.885Z,15.55
2022-12-25T12:24:49.887Z,15.52
2022-12-25T12:25:49.871Z,15.47
2022-12-25T12:26:49.859Z,15.49
2022-12-25T12:27:49.833Z,15.40
2022-12-25T12:28:49.810Z,15.39
2022-12-25T12:29:49.815Z,15.31
2022-12-25T12:30:49.789Z,15.27
2022-12-25T12:31:49.936Z,15.28
2022-12-25T12:32:49.760Z,15.21
2022-12-25T12:33:49.749Z,15.21
2022-12-25T12:34:49.753Z,15.17
2022-12-25T12:35:49.735Z,15.04
2022-12-25T12:36:49.718Z,14.99
2022-12-25T12:37:49.739Z,15.00
2022-12-25T12:38:49.676Z,15.02
2022-12-25T12:39:49.685Z,15.00
2022-12-25T12:40:49.648Z,15.04
2022-12-25T12:41:49.645Z,15.02
2022-12-25T12:42:49.662Z,14.97
2022-12-25T12:43:49.618Z,14.91
2022-12-25T12:44:49.609Z,14.92
2022-12-25T12:45:49.666Z,14.91
2022-12-25T12:46:49.666Z,14.89
2022-12-25T12:47:49.624Z,14.97
2022-12-25T12:48:49.564Z,15.06
2022-12-25T12:49:49.541Z,15.09
2022-12-25T12:50:49.524Z,15.02
2022-12-25T12:51:49.525Z,15.00
2022-12-25T12:52:49.533Z,15.03
2022-12-25T12:53:49.493Z,15.09
2022-12-25T12:54:49.471Z,15.15
2022-12-25T12:55:49.492Z,15.27
2022-12-25T12:56:49.441Z,15.33
2022-12-25T12:57:49.451Z,15.31
2022-12-25T12:58:49.475Z,15.27
2022-12-25T12:59:49.413Z,15.35
2022-12-25T13:00:49.427Z,15.35
2022-12-25T13:01:49.587Z,15.24
2022-12-25T13:02:49.455Z,15.00
2022-12-25T13:03:49.401Z,14.91
2022-12-25T13:04:49.355Z,14.88
2022-12-25T13:05:49.318Z,14.94
2022-12-25T13:06:49.353Z,14.99
2022-12-25T13:07:49.303Z,15.04
2022-12-25T13:08:49.310Z,15.03
2022-12-25T13:09:49.277Z,14.97
2022-12-25T13:10:49.262Z,14.96